sensor_id;sensor_type;location;lat;lon;timestamp;P1;durP1;ratioP1;P2;durP2;ratioP2
51556;SDS011;38766;53.194;5.532;2022-10-16T00:01:08;8.77;;;2.10;;
51556;SDS011;38766;53.194;5.532;2022-10-16T00:03:36;7.95;;;1.83;;
51556;SDS011;38766;53.194;5.532;2022-10-16T00:06:02;9.38;;;2.88;;
51556;SDS011;38766;53.194;5.532;2022-10-16T00:08:28;6.32;;;1.90;;
51556;SDS011;38766;53.194;5.532;2022-10-16T00:11:01;4.85;;;1.85;;
51556;SDS011;38766;53.194;5.532;2022-10-16T00:13:28;5.80;;;1.80;;
51556;SDS011;38766;53.194;5.532;2022-10-16T00:15:55;5.43;;;1.90;;
51556;SDS011;38766;53.194;5.532;2022-10-16T00:18:22;6.93;;;2.05;;
51556;SDS011;38766;53.194;5.532;2022-10-16T00:20:49;8.48;;;2.13;;
51556;SDS011;38766;53.194;5.532;2022-10-16T00:23:14;5.70;;;1.98;;
51556;SDS011;38766;53.194;5.532;2022-10-16T00:25:40;5.32;;;1.80;;
51556;SDS011;38766;53.194;5.532;2022-10-16T00:28:05;5.45;;;2.08;;
51556;SDS011;38766;53.194;5.532;2022-10-16T00:30:31;4.55;;;1.70;;
51556;SDS011;38766;53.194;5.532;2022-10-16T00:32:57;4.13;;;1.67;;
51556;SDS011;38766;53.194;5.532;2022-10-16T00:35:22;6.93;;;2.20;;
51556;SDS011;38766;53.194;5.532;2022-10-16T00:37:48;9.68;;;2.10;;
51556;SDS011;38766;53.194;5.532;2022-10-16T00:40:14;6.30;;;2.17;;
51556;SDS011;38766;53.194;5.532;2022-10-16T00:42:39;5.93;;;2.13;;
51556;SDS011;38766;53.194;5.532;2022-10-16T00:45:05;4.70;;;1.60;;
51556;SDS011;38766;53.194;5.532;2022-10-16T00:50:09;10.52;;;2.30;;
51556;SDS011;38766;53.194;5.532;2022-10-16T00:52:39;9.93;;;2.05;;
51556;SDS011;38766;53.194;5.532;2022-10-16T00:55:09;5.28;;;2.00;;
51556;SDS011;38766;53.194;5.532;2022-10-16T00:57:35;3.33;;;1.83;;
51556;SDS011;38766;53.194;5.532;2022-10-16T01:00:03;3.53;;;1.40;;
51556;SDS011;38766;53.194;5.532;2022-10-16T01:02:30;5.63;;;1.50;;
51556;SDS011;38766;53.194;5.532;2022-10-16T01:04:56;4.80;;;1.95;;
51556;SDS011;38766;53.194;5.532;2022-10-16T01:12:46;6.82;;;1.75;;
51556;SDS011;38766;53.194;5.532;2022-10-16T01:15:37;5.30;;;1.65;;
51556;SDS011;38766;53.194;5.532;2022-10-16T01:20:47;5.25;;;1.80;;
51556;SDS011;38766;53.194;5.532;2022-10-16T01:23:36;3.92;;;1.75;;
51556;SDS011;38766;53.194;5.532;2022-10-16T01:29:25;4.45;;;1.60;;
51556;SDS011;38766;53.194;5.532;2022-10-16T01:32:02;3.55;;;1.50;;
51556;SDS011;38766;53.194;5.532;2022-10-16T01:34:37;2.75;;;1.35;;
51556;SDS011;38766;53.194;5.532;2022-10-16T01:37:12;6.03;;;1.80;;
51556;SDS011;38766;53.194;5.532;2022-10-16T01:39:50;3.10;;;1.73;;
51556;SDS011;38766;53.194;5.532;2022-10-16T01:42:21;3.83;;;1.50;;
51556;SDS011;38766;53.194;5.532;2022-10-16T01:44:49;3.85;;;1.55;;
51556;SDS011;38766;53.194;5.532;2022-10-16T01:47:18;4.95;;;1.85;;
51556;SDS011;38766;53.194;5.532;2022-10-16T01:49:47;3.67;;;1.45;;
51556;SDS011;38766;53.194;5.532;2022-10-16T01:52:15;6.55;;;1.90;;
51556;SDS011;38766;53.194;5.532;2022-10-16T01:54:45;4.30;;;2.00;;
51556;SDS011;38766;53.194;5.532;2022-10-16T01:57:14;5.93;;;1.80;;
51556;SDS011;38766;53.194;5.532;2022-10-16T01:59:42;7.53;;;1.98;;
51556;SDS011;38766;53.194;5.532;2022-10-16T02:02:11;6.63;;;2.25;;
51556;SDS011;38766;53.194;5.532;2022-10-16T02:04:44;4.60;;;2.30;;
51556;SDS011;38766;53.194;5.532;2022-10-16T02:07:12;5.05;;;1.85;;
51556;SDS011;38766;53.194;5.532;2022-10-16T02:09:39;6.85;;;2.17;;
51556;SDS011;38766;53.194;5.532;2022-10-16T02:12:10;5.72;;;1.80;;
51556;SDS011;38766;53.194;5.532;2022-10-16T02:14:50;3.90;;;1.70;;
51556;SDS011;38766;53.194;5.532;2022-10-16T02:17:16;6.20;;;1.70;;
51556;SDS011;38766;53.194;5.532;2022-10-16T02:19:42;6.38;;;1.90;;
51556;SDS011;38766;53.194;5.532;2022-10-16T02:22:14;6.68;;;1.60;;
51556;SDS011;38766;53.194;5.532;2022-10-16T02:24:52;7.72;;;2.08;;
51556;SDS011;38766;53.194;5.532;2022-10-16T02:30:07;5.90;;;1.60;;
51556;SDS011;38766;53.194;5.532;2022-10-16T02:32:39;7.82;;;2.25;;
51556;SDS011;38766;53.194;5.532;2022-10-16T02:35:07;5.28;;;2.30;;
51556;SDS011;38766;53.194;5.532;2022-10-16T02:37:34;4.53;;;2.13;;
51556;SDS011;38766;53.194;5.532;2022-10-16T02:40:00;5.15;;;2.50;;
51556;SDS011;38766;53.194;5.532;2022-10-16T02:42:28;6.93;;;2.67;;
51556;SDS011;38766;53.194;5.532;2022-10-16T02:44:58;7.40;;;3.20;;
51556;SDS011;38766;53.194;5.532;2022-10-16T02:47:24;5.38;;;2.65;;
51556;SDS011;38766;53.194;5.532;2022-10-16T02:49:50;5.47;;;2.97;;
51556;SDS011;38766;53.194;5.532;2022-10-16T02:52:16;6.60;;;3.00;;
51556;SDS011;38766;53.194;5.532;2022-10-16T02:54:41;6.15;;;2.90;;
51556;SDS011;38766;53.194;5.532;2022-10-16T02:57:07;8.73;;;3.33;;
51556;SDS011;38766;53.194;5.532;2022-10-16T02:59:32;5.50;;;2.72;;
51556;SDS011;38766;53.194;5.532;2022-10-16T03:01:58;4.95;;;2.70;;
51556;SDS011;38766;53.194;5.532;2022-10-16T03:04:24;10.10;;;3.38;;
51556;SDS011;38766;53.194;5.532;2022-10-16T03:06:49;5.95;;;2.55;;
51556;SDS011;38766;53.194;5.532;2022-10-16T03:09:15;4.03;;;2.55;;
51556;SDS011;38766;53.194;5.532;2022-10-16T03:11:40;6.07;;;2.75;;
51556;SDS011;38766;53.194;5.532;2022-10-16T03:14:06;8.50;;;3.00;;
51556;SDS011;38766;53.194;5.532;2022-10-16T03:16:32;6.30;;;2.60;;
51556;SDS011;38766;53.194;5.532;2022-10-16T03:18:58;5.35;;;2.70;;
51556;SDS011;38766;53.194;5.532;2022-10-16T03:21:23;5.20;;;2.80;;
51556;SDS011;38766;53.194;5.532;2022-10-16T03:23:49;6.35;;;2.30;;
51556;SDS011;38766;53.194;5.532;2022-10-16T03:26:15;4.65;;;2.15;;
51556;SDS011;38766;53.194;5.532;2022-10-16T03:28:40;6.38;;;2.35;;
51556;SDS011;38766;53.194;5.532;2022-10-16T03:31:06;5.05;;;2.10;;
51556;SDS011;38766;53.194;5.532;2022-10-16T03:33:31;5.63;;;2.20;;
51556;SDS011;38766;53.194;5.532;2022-10-16T03:35:57;3.47;;;2.05;;
51556;SDS011;38766;53.194;5.532;2022-10-16T03:38:22;2.65;;;2.00;;
51556;SDS011;38766;53.194;5.532;2022-10-16T03:40:48;7.20;;;2.20;;
51556;SDS011;38766;53.194;5.532;2022-10-16T03:43:14;4.70;;;1.80;;
51556;SDS011;38766;53.194;5.532;2022-10-16T03:45:39;3.67;;;1.90;;
51556;SDS011;38766;53.194;5.532;2022-10-16T03:48:05;2.30;;;1.98;;
51556;SDS011;38766;53.194;5.532;2022-10-16T03:50:30;4.70;;;1.90;;
51556;SDS011;38766;53.194;5.532;2022-10-16T03:52:56;4.15;;;1.73;;
51556;SDS011;38766;53.194;5.532;2022-10-16T03:55:22;3.65;;;2.20;;
51556;SDS011;38766;53.194;5.532;2022-10-16T03:57:47;4.28;;;1.90;;
51556;SDS011;38766;53.194;5.532;2022-10-16T04:00:13;6.60;;;1.83;;
51556;SDS011;38766;53.194;5.532;2022-10-16T04:02:39;6.07;;;1.90;;
51556;SDS011;38766;53.194;5.532;2022-10-16T04:05:05;6.18;;;2.00;;
51556;SDS011;38766;53.194;5.532;2022-10-16T04:07:32;6.40;;;2.33;;
51556;SDS011;38766;53.194;5.532;2022-10-16T04:09:58;5.82;;;1.80;;
51556;SDS011;38766;53.194;5.532;2022-10-16T04:12:24;3.53;;;1.77;;
51556;SDS011;38766;53.194;5.532;2022-10-16T04:14:50;3.20;;;2.08;;
51556;SDS011;38766;53.194;5.532;2022-10-16T04:17:16;3.72;;;2.00;;
51556;SDS011;38766;53.194;5.532;2022-10-16T04:19:42;2.50;;;2.10;;
51556;SDS011;38766;53.194;5.532;2022-10-16T04:22:07;6.00;;;2.00;;
51556;SDS011;38766;53.194;5.532;2022-10-16T04:24:33;3.85;;;1.90;;
51556;SDS011;38766;53.194;5.532;2022-10-16T04:26:59;5.07;;;2.25;;
51556;SDS011;38766;53.194;5.532;2022-10-16T04:29:24;7.40;;;2.65;;
51556;SDS011;38766;53.194;5.532;2022-10-16T04:31:50;5.97;;;2.30;;
51556;SDS011;38766;53.194;5.532;2022-10-16T04:34:15;3.00;;;1.92;;
51556;SDS011;38766;53.194;5.532;2022-10-16T04:36:41;4.15;;;1.83;;
51556;SDS011;38766;53.194;5.532;2022-10-16T04:39:06;5.97;;;2.10;;
51556;SDS011;38766;53.194;5.532;2022-10-16T04:41:32;3.70;;;1.88;;
51556;SDS011;38766;53.194;5.532;2022-10-16T04:43:58;5.50;;;2.28;;
51556;SDS011;38766;53.194;5.532;2022-10-16T04:46:23;4.30;;;2.00;;
51556;SDS011;38766;53.194;5.532;2022-10-16T04:48:49;6.13;;;1.98;;
51556;SDS011;38766;53.194;5.532;2022-10-16T04:51:14;7.32;;;2.38;;
51556;SDS011;38766;53.194;5.532;2022-10-16T04:53:40;5.88;;;2.60;;
51556;SDS011;38766;53.194;5.532;2022-10-16T04:56:06;5.53;;;1.92;;
51556;SDS011;38766;53.194;5.532;2022-10-16T04:58:31;4.32;;;1.83;;
51556;SDS011;38766;53.194;5.532;2022-10-16T05:00:58;5.97;;;2.03;;
51556;SDS011;38766;53.194;5.532;2022-10-16T05:03:23;6.30;;;1.80;;
51556;SDS011;38766;53.194;5.532;2022-10-16T05:05:49;6.93;;;2.35;;
51556;SDS011;38766;53.194;5.532;2022-10-16T05:08:15;4.72;;;1.70;;
51556;SDS011;38766;53.194;5.532;2022-10-16T05:10:42;5.10;;;1.70;;
51556;SDS011;38766;53.194;5.532;2022-10-16T05:13:08;5.93;;;1.80;;
51556;SDS011;38766;53.194;5.532;2022-10-16T05:15:34;9.00;;;2.38;;
51556;SDS011;38766;53.194;5.532;2022-10-16T05:18:00;3.83;;;2.20;;
51556;SDS011;38766;53.194;5.532;2022-10-16T05:20:25;4.03;;;1.60;;
51556;SDS011;38766;53.194;5.532;2022-10-16T05:22:51;2.78;;;1.67;;
51556;SDS011;38766;53.194;5.532;2022-10-16T05:25:16;4.47;;;2.40;;
51556;SDS011;38766;53.194;5.532;2022-10-16T05:27:42;4.07;;;2.15;;
51556;SDS011;38766;53.194;5.532;2022-10-16T05:30:08;6.13;;;2.42;;
51556;SDS011;38766;53.194;5.532;2022-10-16T05:32:34;5.35;;;1.85;;
51556;SDS011;38766;53.194;5.532;2022-10-16T05:34:59;4.50;;;2.15;;
51556;SDS011;38766;53.194;5.532;2022-10-16T05:37:27;8.65;;;2.78;;
51556;SDS011;38766;53.194;5.532;2022-10-16T05:39:52;6.68;;;2.22;;
51556;SDS011;38766;53.194;5.532;2022-10-16T05:42:18;4.75;;;2.63;;
51556;SDS011;38766;53.194;5.532;2022-10-16T05:44:44;4.20;;;2.88;;
51556;SDS011;38766;53.194;5.532;2022-10-16T05:47:09;6.50;;;2.88;;
51556;SDS011;38766;53.194;5.532;2022-10-16T05:49:37;4.85;;;2.85;;
51556;SDS011;38766;53.194;5.532;2022-10-16T05:52:02;6.32;;;3.10;;
51556;SDS011;38766;53.194;5.532;2022-10-16T05:54:28;9.57;;;2.97;;
51556;SDS011;38766;53.194;5.532;2022-10-16T05:56:54;7.30;;;3.28;;
51556;SDS011;38766;53.194;5.532;2022-10-16T05:59:19;7.88;;;2.80;;
51556;SDS011;38766;53.194;5.532;2022-10-16T06:01:45;4.68;;;2.75;;
51556;SDS011;38766;53.194;5.532;2022-10-16T06:04:10;9.95;;;2.97;;
51556;SDS011;38766;53.194;5.532;2022-10-16T06:06:36;8.40;;;2.80;;
51556;SDS011;38766;53.194;5.532;2022-10-16T06:09:02;5.75;;;2.58;;
51556;SDS011;38766;53.194;5.532;2022-10-16T06:11:29;4.55;;;2.78;;
51556;SDS011;38766;53.194;5.532;2022-10-16T06:13:57;9.45;;;2.80;;
51556;SDS011;38766;53.194;5.532;2022-10-16T06:16:26;5.55;;;2.90;;
51556;SDS011;38766;53.194;5.532;2022-10-16T06:18:53;5.55;;;2.75;;
51556;SDS011;38766;53.194;5.532;2022-10-16T06:21:21;8.40;;;2.92;;
51556;SDS011;38766;53.194;5.532;2022-10-16T06:23:52;6.82;;;2.95;;
51556;SDS011;38766;53.194;5.532;2022-10-16T06:26:20;6.53;;;2.90;;
51556;SDS011;38766;53.194;5.532;2022-10-16T06:28:47;7.82;;;2.80;;
51556;SDS011;38766;53.194;5.532;2022-10-16T06:31:13;6.80;;;2.70;;
51556;SDS011;38766;53.194;5.532;2022-10-16T06:33:39;7.78;;;2.85;;
51556;SDS011;38766;53.194;5.532;2022-10-16T06:38:33;7.18;;;3.10;;
51556;SDS011;38766;53.194;5.532;2022-10-16T06:40:59;10.45;;;2.75;;
51556;SDS011;38766;53.194;5.532;2022-10-16T06:43:25;7.32;;;2.53;;
51556;SDS011;38766;53.194;5.532;2022-10-16T06:45:54;6.63;;;2.50;;
51556;SDS011;38766;53.194;5.532;2022-10-16T06:48:21;11.77;;;2.63;;
51556;SDS011;38766;53.194;5.532;2022-10-16T06:50:59;6.07;;;2.60;;
51556;SDS011;38766;53.194;5.532;2022-10-16T06:53:25;7.93;;;2.85;;
51556;SDS011;38766;53.194;5.532;2022-10-16T06:55:52;6.80;;;2.33;;
51556;SDS011;38766;53.194;5.532;2022-10-16T06:58:18;4.95;;;2.05;;
51556;SDS011;38766;53.194;5.532;2022-10-16T07:00:43;7.78;;;2.25;;
51556;SDS011;38766;53.194;5.532;2022-10-16T07:03:09;9.82;;;2.47;;
51556;SDS011;38766;53.194;5.532;2022-10-16T07:05:38;7.38;;;2.10;;
51556;SDS011;38766;53.194;5.532;2022-10-16T07:08:04;6.32;;;2.30;;
51556;SDS011;38766;53.194;5.532;2022-10-16T07:10:31;5.97;;;2.45;;
51556;SDS011;38766;53.194;5.532;2022-10-16T07:12:56;7.68;;;2.50;;
51556;SDS011;38766;53.194;5.532;2022-10-16T07:15:22;7.10;;;2.50;;
51556;SDS011;38766;53.194;5.532;2022-10-16T07:17:49;8.55;;;2.80;;
51556;SDS011;38766;53.194;5.532;2022-10-16T07:20:15;7.32;;;2.85;;
51556;SDS011;38766;53.194;5.532;2022-10-16T07:22:41;9.68;;;2.85;;
51556;SDS011;38766;53.194;5.532;2022-10-16T07:25:06;6.10;;;2.95;;
51556;SDS011;38766;53.194;5.532;2022-10-16T07:27:33;9.38;;;2.95;;
51556;SDS011;38766;53.194;5.532;2022-10-16T07:29:59;7.55;;;2.53;;
51556;SDS011;38766;53.194;5.532;2022-10-16T07:32:24;6.57;;;2.47;;
51556;SDS011;38766;53.194;5.532;2022-10-16T07:34:50;5.07;;;1.90;;
51556;SDS011;38766;53.194;5.532;2022-10-16T07:37:16;3.92;;;1.90;;
51556;SDS011;38766;53.194;5.532;2022-10-16T07:39:42;7.90;;;2.60;;
51556;SDS011;38766;53.194;5.532;2022-10-16T07:42:08;5.22;;;2.50;;
51556;SDS011;38766;53.194;5.532;2022-10-16T07:44:34;8.13;;;2.45;;
51556;SDS011;38766;53.194;5.532;2022-10-16T07:46:59;7.97;;;2.88;;
51556;SDS011;38766;53.194;5.532;2022-10-16T07:49:25;6.75;;;3.00;;
51556;SDS011;38766;53.194;5.532;2022-10-16T07:51:51;12.40;;;3.28;;
51556;SDS011;38766;53.194;5.532;2022-10-16T07:54:16;6.50;;;3.28;;
51556;SDS011;38766;53.194;5.532;2022-10-16T07:56:42;9.00;;;2.90;;
51556;SDS011;38766;53.194;5.532;2022-10-16T07:59:07;7.07;;;3.00;;
51556;SDS011;38766;53.194;5.532;2022-10-16T08:01:33;6.22;;;2.80;;
51556;SDS011;38766;53.194;5.532;2022-10-16T08:03:58;5.00;;;2.42;;
51556;SDS011;38766;53.194;5.532;2022-10-16T08:06:24;9.32;;;3.05;;
51556;SDS011;38766;53.194;5.532;2022-10-16T08:08:50;8.70;;;3.08;;
51556;SDS011;38766;53.194;5.532;2022-10-16T08:11:15;12.85;;;3.50;;
51556;SDS011;38766;53.194;5.532;2022-10-16T08:13:42;7.93;;;2.33;;
51556;SDS011;38766;53.194;5.532;2022-10-16T08:16:08;11.25;;;2.92;;
51556;SDS011;38766;53.194;5.532;2022-10-16T08:18:35;14.20;;;2.80;;
51556;SDS011;38766;53.194;5.532;2022-10-16T08:21:02;11.60;;;2.53;;
51556;SDS011;38766;53.194;5.532;2022-10-16T08:23:29;10.88;;;2.75;;
51556;SDS011;38766;53.194;5.532;2022-10-16T08:25:55;13.93;;;2.95;;
51556;SDS011;38766;53.194;5.532;2022-10-16T08:28:26;13.77;;;2.85;;
51556;SDS011;38766;53.194;5.532;2022-10-16T08:30:52;12.32;;;3.45;;
51556;SDS011;38766;53.194;5.532;2022-10-16T08:33:18;8.15;;;2.25;;
51556;SDS011;38766;53.194;5.532;2022-10-16T08:35:50;12.15;;;3.42;;
51556;SDS011;38766;53.194;5.532;2022-10-16T08:38:19;13.18;;;2.47;;
51556;SDS011;38766;53.194;5.532;2022-10-16T08:40:45;11.95;;;3.40;;
51556;SDS011;38766;53.194;5.532;2022-10-16T08:45:45;9.75;;;2.58;;
51556;SDS011;38766;53.194;5.532;2022-10-16T08:51:06;7.60;;;2.38;;
51556;SDS011;38766;53.194;5.532;2022-10-16T08:56:51;8.70;;;2.88;;
51556;SDS011;38766;53.194;5.532;2022-10-16T08:59:20;7.82;;;2.30;;
51556;SDS011;38766;53.194;5.532;2022-10-16T09:01:46;8.13;;;2.45;;
51556;SDS011;38766;53.194;5.532;2022-10-16T09:07:20;11.02;;;2.35;;
51556;SDS011;38766;53.194;5.532;2022-10-16T09:18:37;11.32;;;3.08;;
51556;SDS011;38766;53.194;5.532;2022-10-16T09:21:10;13.77;;;2.85;;
51556;SDS011;38766;53.194;5.532;2022-10-16T09:23:43;17.67;;;3.20;;
51556;SDS011;38766;53.194;5.532;2022-10-16T09:26:11;17.23;;;3.08;;
51556;SDS011;38766;53.194;5.532;2022-10-16T09:28:38;12.48;;;3.10;;
51556;SDS011;38766;53.194;5.532;2022-10-16T09:31:04;11.90;;;3.30;;
51556;SDS011;38766;53.194;5.532;2022-10-16T09:33:33;12.57;;;3.55;;
51556;SDS011;38766;53.194;5.532;2022-10-16T09:36:02;20.85;;;3.25;;
51556;SDS011;38766;53.194;5.532;2022-10-16T09:38:34;15.45;;;4.38;;
51556;SDS011;38766;53.194;5.532;2022-10-16T09:44:03;16.98;;;4.53;;
51556;SDS011;38766;53.194;5.532;2022-10-16T09:46:40;17.00;;;3.65;;
51556;SDS011;38766;53.194;5.532;2022-10-16T09:51:48;14.68;;;2.75;;
51556;SDS011;38766;53.194;5.532;2022-10-16T09:54:15;13.68;;;2.90;;
51556;SDS011;38766;53.194;5.532;2022-10-16T09:56:45;11.75;;;2.50;;
51556;SDS011;38766;53.194;5.532;2022-10-16T09:59:14;13.98;;;2.80;;
51556;SDS011;38766;53.194;5.532;2022-10-16T10:04:08;14.73;;;3.53;;
51556;SDS011;38766;53.194;5.532;2022-10-16T10:06:36;21.17;;;3.50;;
51556;SDS011;38766;53.194;5.532;2022-10-16T10:14:17;15.63;;;2.67;;
51556;SDS011;38766;53.194;5.532;2022-10-16T10:16:49;11.95;;;3.35;;
51556;SDS011;38766;53.194;5.532;2022-10-16T10:19:21;17.13;;;3.63;;
51556;SDS011;38766;53.194;5.532;2022-10-16T10:21:49;18.23;;;2.97;;
51556;SDS011;38766;53.194;5.532;2022-10-16T10:24:16;16.70;;;3.38;;
51556;SDS011;38766;53.194;5.532;2022-10-16T10:27:05;13.70;;;3.33;;
51556;SDS011;38766;53.194;5.532;2022-10-16T10:35:14;9.07;;;2.55;;
51556;SDS011;38766;53.194;5.532;2022-10-16T10:38:02;12.50;;;2.50;;
51556;SDS011;38766;53.194;5.532;2022-10-16T10:40:46;11.07;;;2.85;;
51556;SDS011;38766;53.194;5.532;2022-10-16T10:54:28;8.82;;;2.92;;
51556;SDS011;38766;53.194;5.532;2022-10-16T10:56:57;9.95;;;2.45;;
51556;SDS011;38766;53.194;5.532;2022-10-16T11:02:00;7.72;;;2.00;;
51556;SDS011;38766;53.194;5.532;2022-10-16T11:09:56;12.48;;;2.90;;
51556;SDS011;38766;53.194;5.532;2022-10-16T11:15:28;11.25;;;2.97;;
51556;SDS011;38766;53.194;5.532;2022-10-16T11:17:59;10.95;;;2.90;;
51556;SDS011;38766;53.194;5.532;2022-10-16T11:20:47;10.82;;;2.38;;
51556;SDS011;38766;53.194;5.532;2022-10-16T11:23:25;9.45;;;2.13;;
51556;SDS011;38766;53.194;5.532;2022-10-16T11:25:56;9.57;;;2.13;;
51556;SDS011;38766;53.194;5.532;2022-10-16T11:28:27;8.18;;;2.15;;
51556;SDS011;38766;53.194;5.532;2022-10-16T11:31:16;9.40;;;2.55;;
51556;SDS011;38766;53.194;5.532;2022-10-16T11:39:52;8.32;;;2.17;;
51556;SDS011;38766;53.194;5.532;2022-10-16T11:42:27;10.90;;;2.15;;
51556;SDS011;38766;53.194;5.532;2022-10-16T11:48:08;9.57;;;2.22;;
51556;SDS011;38766;53.194;5.532;2022-10-16T11:50:58;8.95;;;1.88;;
51556;SDS011;38766;53.194;5.532;2022-10-16T11:53:46;16.23;;;3.00;;
51556;SDS011;38766;53.194;5.532;2022-10-16T11:56:36;10.55;;;2.72;;
51556;SDS011;38766;53.194;5.532;2022-10-16T11:59:18;9.05;;;1.77;;
51556;SDS011;38766;53.194;5.532;2022-10-16T12:01:58;8.35;;;2.00;;
51556;SDS011;38766;53.194;5.532;2022-10-16T12:04:49;8.52;;;2.13;;
51556;SDS011;38766;53.194;5.532;2022-10-16T12:07:24;7.57;;;1.88;;
51556;SDS011;38766;53.194;5.532;2022-10-16T12:09:57;12.35;;;3.88;;
51556;SDS011;38766;53.194;5.532;2022-10-16T12:15:01;11.60;;;2.40;;
51556;SDS011;38766;53.194;5.532;2022-10-16T12:17:42;9.52;;;2.20;;
51556;SDS011;38766;53.194;5.532;2022-10-16T12:22:37;8.85;;;1.80;;
51556;SDS011;38766;53.194;5.532;2022-10-16T12:25:23;8.07;;;2.10;;
51556;SDS011;38766;53.194;5.532;2022-10-16T12:27:55;11.40;;;3.80;;
51556;SDS011;38766;53.194;5.532;2022-10-16T12:30:23;5.05;;;1.95;;
51556;SDS011;38766;53.194;5.532;2022-10-16T12:32:55;12.35;;;2.42;;
51556;SDS011;38766;53.194;5.532;2022-10-16T12:35:27;8.23;;;2.17;;
51556;SDS011;38766;53.194;5.532;2022-10-16T12:38:05;6.30;;;2.20;;
51556;SDS011;38766;53.194;5.532;2022-10-16T12:40:41;8.10;;;1.92;;
51556;SDS011;38766;53.194;5.532;2022-10-16T12:43:13;8.90;;;2.30;;
51556;SDS011;38766;53.194;5.532;2022-10-16T12:48:35;14.20;;;2.80;;
51556;SDS011;38766;53.194;5.532;2022-10-16T12:54:03;6.13;;;2.33;;
51556;SDS011;38766;53.194;5.532;2022-10-16T13:05:03;10.40;;;2.20;;
51556;SDS011;38766;53.194;5.532;2022-10-16T13:10:36;11.32;;;2.45;;
51556;SDS011;38766;53.194;5.532;2022-10-16T13:24:52;12.07;;;2.03;;
51556;SDS011;38766;53.194;5.532;2022-10-16T13:27:34;10.80;;;2.20;;
51556;SDS011;38766;53.194;5.532;2022-10-16T13:30:21;12.35;;;2.83;;
51556;SDS011;38766;53.194;5.532;2022-10-16T13:32:52;9.75;;;1.90;;
51556;SDS011;38766;53.194;5.532;2022-10-16T13:35:29;12.38;;;2.15;;
51556;SDS011;38766;53.194;5.532;2022-10-16T13:38:30;7.47;;;2.15;;
51556;SDS011;38766;53.194;5.532;2022-10-16T13:46:03;8.52;;;2.03;;
51556;SDS011;38766;53.194;5.532;2022-10-16T13:48:37;12.27;;;2.42;;
51556;SDS011;38766;53.194;5.532;2022-10-16T13:51:04;8.60;;;2.35;;
51556;SDS011;38766;53.194;5.532;2022-10-16T13:53:40;9.38;;;2.33;;
51556;SDS011;38766;53.194;5.532;2022-10-16T13:56:09;11.20;;;2.45;;
51556;SDS011;38766;53.194;5.532;2022-10-16T13:58:39;10.43;;;2.47;;
51556;SDS011;38766;53.194;5.532;2022-10-16T14:01:05;17.65;;;2.85;;
51556;SDS011;38766;53.194;5.532;2022-10-16T14:03:51;9.27;;;2.30;;
51556;SDS011;38766;53.194;5.532;2022-10-16T14:06:21;12.82;;;2.13;;
51556;SDS011;38766;53.194;5.532;2022-10-16T14:08:54;10.07;;;2.00;;
51556;SDS011;38766;53.194;5.532;2022-10-16T14:11:27;9.80;;;1.88;;
51556;SDS011;38766;53.194;5.532;2022-10-16T14:13:53;15.68;;;2.35;;
51556;SDS011;38766;53.194;5.532;2022-10-16T14:16:21;15.05;;;2.60;;
51556;SDS011;38766;53.194;5.532;2022-10-16T14:18:57;10.80;;;2.15;;
51556;SDS011;38766;53.194;5.532;2022-10-16T14:21:25;8.57;;;3.10;;
51556;SDS011;38766;53.194;5.532;2022-10-16T14:23:51;13.38;;;2.58;;
51556;SDS011;38766;53.194;5.532;2022-10-16T14:26:19;8.93;;;2.20;;
51556;SDS011;38766;53.194;5.532;2022-10-16T14:28:47;9.40;;;2.25;;
51556;SDS011;38766;53.194;5.532;2022-10-16T14:33:53;15.40;;;2.83;;
51556;SDS011;38766;53.194;5.532;2022-10-16T14:36:19;9.75;;;2.63;;
51556;SDS011;38766;53.194;5.532;2022-10-16T14:41:43;11.40;;;3.10;;
51556;SDS011;38766;53.194;5.532;2022-10-16T14:44:12;8.57;;;2.17;;
51556;SDS011;38766;53.194;5.532;2022-10-16T14:46:39;14.18;;;2.20;;
51556;SDS011;38766;53.194;5.532;2022-10-16T14:51:35;10.07;;;2.90;;
51556;SDS011;38766;53.194;5.532;2022-10-16T14:54:02;11.43;;;2.80;;
51556;SDS011;38766;53.194;5.532;2022-10-16T14:56:48;15.30;;;2.60;;
51556;SDS011;38766;53.194;5.532;2022-10-16T14:59:16;11.25;;;2.22;;
51556;SDS011;38766;53.194;5.532;2022-10-16T15:02:06;9.30;;;2.72;;
51556;SDS011;38766;53.194;5.532;2022-10-16T15:04:47;12.88;;;3.88;;
51556;SDS011;38766;53.194;5.532;2022-10-16T15:07:13;21.23;;;12.27;;
51556;SDS011;38766;53.194;5.532;2022-10-16T15:09:39;11.45;;;2.65;;
51556;SDS011;38766;53.194;5.532;2022-10-16T15:12:05;11.15;;;2.45;;
51556;SDS011;38766;53.194;5.532;2022-10-16T15:14:30;12.00;;;2.53;;
51556;SDS011;38766;53.194;5.532;2022-10-16T15:16:56;13.63;;;2.67;;
51556;SDS011;38766;53.194;5.532;2022-10-16T15:19:22;10.27;;;2.55;;
51556;SDS011;38766;53.194;5.532;2022-10-16T15:21:48;8.88;;;2.45;;
51556;SDS011;38766;53.194;5.532;2022-10-16T15:24:14;11.18;;;2.15;;
51556;SDS011;38766;53.194;5.532;2022-10-16T15:26:40;7.32;;;2.10;;
51556;SDS011;38766;53.194;5.532;2022-10-16T15:29:06;9.23;;;2.70;;
51556;SDS011;38766;53.194;5.532;2022-10-16T15:31:32;11.65;;;2.83;;
51556;SDS011;38766;53.194;5.532;2022-10-16T15:33:58;11.45;;;2.47;;
51556;SDS011;38766;53.194;5.532;2022-10-16T15:36:29;9.15;;;2.30;;
51556;SDS011;38766;53.194;5.532;2022-10-16T15:38:59;26.70;;;2.92;;
51556;SDS011;38766;53.194;5.532;2022-10-16T15:41:25;10.55;;;3.00;;
51556;SDS011;38766;53.194;5.532;2022-10-16T15:43:51;10.98;;;2.30;;
51556;SDS011;38766;53.194;5.532;2022-10-16T15:46:18;15.25;;;2.70;;
51556;SDS011;38766;53.194;5.532;2022-10-16T15:48:45;13.15;;;2.97;;
51556;SDS011;38766;53.194;5.532;2022-10-16T15:51:12;13.68;;;3.38;;
51556;SDS011;38766;53.194;5.532;2022-10-16T15:53:37;11.98;;;2.65;;
51556;SDS011;38766;53.194;5.532;2022-10-16T15:56:06;13.82;;;3.38;;
51556;SDS011;38766;53.194;5.532;2022-10-16T15:58:33;15.23;;;2.90;;
51556;SDS011;38766;53.194;5.532;2022-10-16T16:00:59;15.82;;;2.97;;
51556;SDS011;38766;53.194;5.532;2022-10-16T16:03:26;16.58;;;5.90;;
51556;SDS011;38766;53.194;5.532;2022-10-16T16:05:52;13.27;;;3.72;;
51556;SDS011;38766;53.194;5.532;2022-10-16T16:08:18;10.98;;;3.08;;
51556;SDS011;38766;53.194;5.532;2022-10-16T16:10:44;12.43;;;4.18;;
51556;SDS011;38766;53.194;5.532;2022-10-16T16:13:09;12.32;;;4.28;;
51556;SDS011;38766;53.194;5.532;2022-10-16T16:15:38;13.68;;;3.03;;
51556;SDS011;38766;53.194;5.532;2022-10-16T16:18:05;11.75;;;2.83;;
51556;SDS011;38766;53.194;5.532;2022-10-16T16:20:31;9.57;;;2.70;;
51556;SDS011;38766;53.194;5.532;2022-10-16T16:22:56;10.02;;;2.70;;
51556;SDS011;38766;53.194;5.532;2022-10-16T16:25:22;11.75;;;2.67;;
51556;SDS011;38766;53.194;5.532;2022-10-16T16:27:47;11.07;;;2.63;;
51556;SDS011;38766;53.194;5.532;2022-10-16T16:30:13;9.63;;;2.40;;
51556;SDS011;38766;53.194;5.532;2022-10-16T16:32:39;11.88;;;2.50;;
51556;SDS011;38766;53.194;5.532;2022-10-16T16:35:04;9.90;;;2.55;;
51556;SDS011;38766;53.194;5.532;2022-10-16T16:37:30;12.23;;;3.15;;
51556;SDS011;38766;53.194;5.532;2022-10-16T16:39:56;13.18;;;3.92;;
51556;SDS011;38766;53.194;5.532;2022-10-16T16:42:24;11.43;;;4.68;;
51556;SDS011;38766;53.194;5.532;2022-10-16T16:44:50;12.90;;;4.28;;
51556;SDS011;38766;53.194;5.532;2022-10-16T16:47:16;17.00;;;7.50;;
51556;SDS011;38766;53.194;5.532;2022-10-16T16:49:42;24.23;;;7.95;;
51556;SDS011;38766;53.194;5.532;2022-10-16T16:52:07;13.48;;;5.28;;
51556;SDS011;38766;53.194;5.532;2022-10-16T16:54:33;8.55;;;3.60;;
51556;SDS011;38766;53.194;5.532;2022-10-16T16:56:59;10.77;;;5.05;;
51556;SDS011;38766;53.194;5.532;2022-10-16T16:59:24;21.25;;;9.38;;
51556;SDS011;38766;53.194;5.532;2022-10-16T17:01:50;16.05;;;5.63;;
51556;SDS011;38766;53.194;5.532;2022-10-16T17:04:16;12.50;;;3.78;;
51556;SDS011;38766;53.194;5.532;2022-10-16T17:06:42;15.95;;;4.03;;
51556;SDS011;38766;53.194;5.532;2022-10-16T17:09:08;10.23;;;3.58;;